createdAt,value
2018-03-28T00:01:53.257Z,32.88
2018-03-28T00:04:20.804Z,30.33
2018-03-28T00:06:48.225Z,31.23
2018-03-28T00:09:15.677Z,25.50
2018-03-28T00:11:43.165Z,30.75
2018-03-28T00:14:10.613Z,27.87
2018-03-28T00:16:38.097Z,37.33
2018-03-28T00:19:05.550Z,31.50
2018-03-28T00:21:33.142Z,40.42
2018-03-28T00:24:00.587Z,26.87
2018-03-28T00:26:28.086Z,27.20
2018-03-28T00:28:55.541Z,33.20
2018-03-28T00:31:23.029Z,29.45
2018-03-28T00:33:50.487Z,31.25
2018-03-28T00:36:17.969Z,31.33
2018-03-28T00:38:45.438Z,29.20
2018-03-28T00:41:12.925Z,32.92
2018-03-28T00:43:40.380Z,24.73
2018-03-28T00:46:08.001Z,35.65
2018-03-28T00:48:35.467Z,32.27
2018-03-28T00:51:14.553Z,34.85
2018-03-28T00:53:41.999Z,32.00
2018-03-28T00:56:09.478Z,29.73
2018-03-28T00:58:36.929Z,28.80
2018-03-28T01:01:04.378Z,30.40
2018-03-28T01:03:31.861Z,31.90
2018-03-28T01:05:59.309Z,31.92
2018-03-28T01:08:26.789Z,34.08
2018-03-28T01:10:54.241Z,33.08
2018-03-28T01:13:21.725Z,32.58
2018-03-28T01:15:49.262Z,30.58
2018-03-28T01:18:16.746Z,35.33
2018-03-28T01:20:44.202Z,40.78
2018-03-28T01:23:11.680Z,31.50
2018-03-28T01:25:39.131Z,34.25
2018-03-28T01:28:06.614Z,33.85
2018-03-28T01:30:34.064Z,33.47
2018-03-28T01:33:01.559Z,39.65
2018-03-28T01:35:29.015Z,36.47
2018-03-28T01:37:56.497Z,39.80
2018-03-28T01:40:24.002Z,32.13
2018-03-28T01:42:51.469Z,32.88
2018-03-28T01:45:18.929Z,37.33
2018-03-28T01:47:46.504Z,32.80
2018-03-28T01:50:14.686Z,32.53
2018-03-28T01:52:42.357Z,33.95
2018-03-28T01:55:09.813Z,34.70
2018-03-28T01:57:37.265Z,39.95
2018-03-28T02:00:05.509Z,32.33
2018-03-28T02:02:32.970Z,39.95
2018-03-28T02:05:00.450Z,41.28
2018-03-28T02:07:27.901Z,33.50
2018-03-28T02:09:55.388Z,34.25
2018-03-28T02:12:22.845Z,40.00
2018-03-28T02:14:50.327Z,34.80
2018-03-28T02:17:18.690Z,32.72
2018-03-28T02:19:47.138Z,35.55
2018-03-28T02:22:14.597Z,42.60
2018-03-28T02:24:42.085Z,38.78
2018-03-28T02:27:09.605Z,40.83
2018-03-28T02:29:37.098Z,41.88
2018-03-28T02:32:04.626Z,43.47
2018-03-28T02:34:32.163Z,40.30
2018-03-28T02:36:59.642Z,46.80
2018-03-28T02:39:27.126Z,49.40
2018-03-28T02:41:54.592Z,44.60
2018-03-28T02:44:22.422Z,39.33
2018-03-28T02:46:49.878Z,42.40
2018-03-28T02:49:17.331Z,47.30
2018-03-28T02:51:44.815Z,43.70
2018-03-28T02:54:12.270Z,48.42
2018-03-28T02:56:39.774Z,56.40
2018-03-28T02:59:07.229Z,40.83
2018-03-28T03:01:34.708Z,46.28
2018-03-28T03:04:02.167Z,44.30
2018-03-28T03:06:29.660Z,45.30
2018-03-28T03:08:57.143Z,53.28
2018-03-28T03:11:24.620Z,49.27
2018-03-28T03:13:52.069Z,45.47
2018-03-28T03:16:19.570Z,47.25
2018-03-28T03:18:47.034Z,56.95
2018-03-28T03:21:15.502Z,49.60
2018-03-28T03:23:42.953Z,43.22
2018-03-28T03:26:10.432Z,46.83
2018-03-28T03:28:37.881Z,39.95
2018-03-28T03:31:06.350Z,43.90
2018-03-28T03:33:34.701Z,51.25
2018-03-28T03:36:02.205Z,42.17
2018-03-28T03:38:29.658Z,41.80
2018-03-28T03:40:57.112Z,44.38
2018-03-28T03:43:24.610Z,48.05
2018-03-28T03:45:52.070Z,41.53
2018-03-28T03:48:19.557Z,43.38
2018-03-28T03:50:48.017Z,45.10
2018-03-28T03:53:15.505Z,46.67
2018-03-28T03:55:42.952Z,41.28
2018-03-28T03:58:10.436Z,42.00
2018-03-28T04:00:37.885Z,44.60
2018-03-28T04:03:05.365Z,43.30
2018-03-28T04:05:32.820Z,38.30
2018-03-28T04:08:00.301Z,41.88
2018-03-28T04:10:27.763Z,39.55
2018-03-28T04:12:55.280Z,43.28
2018-03-28T04:15:23.676Z,37.95
2018-03-28T04:17:51.197Z,39.75
2018-03-28T04:20:18.668Z,40.53
2018-03-28T04:22:46.182Z,36.80
2018-03-28T04:25:13.666Z,36.42
2018-03-28T04:27:41.177Z,36.25
2018-03-28T04:30:08.661Z,35.10
2018-03-28T04:32:36.141Z,44.00
2018-03-28T04:35:03.648Z,36.67
2018-03-28T04:37:31.139Z,45.17
2018-03-28T04:39:58.656Z,38.28
2018-03-28T04:42:26.133Z,40.85
2018-03-28T04:44:54.596Z,34.60
2018-03-28T04:47:22.983Z,40.50
2018-03-28T04:49:50.496Z,38.13
2018-03-28T04:52:17.972Z,43.13
2018-03-28T04:54:46.464Z,35.20
2018-03-28T04:57:13.936Z,35.22
2018-03-28T04:59:41.426Z,38.85
2018-03-28T05:02:08.881Z,37.90
2018-03-28T05:04:37.281Z,41.60
2018-03-28T05:07:04.740Z,34.65
2018-03-28T05:09:32.251Z,42.58
2018-03-28T05:12:00.668Z,36.88
2018-03-28T05:14:28.168Z,42.15
2018-03-28T05:16:55.646Z,37.40
2018-03-28T05:19:23.156Z,35.83
2018-03-28T05:21:51.600Z,32.35
2018-03-28T05:24:20.005Z,31.70
2018-03-28T05:26:47.452Z,34.75
2018-03-28T05:29:14.933Z,36.38
2018-03-28T05:31:42.383Z,36.95
2018-03-28T05:34:09.886Z,30.98
2018-03-28T05:36:37.341Z,38.65
2018-03-28T05:39:06.585Z,41.03
2018-03-28T05:41:35.068Z,31.15
2018-03-28T05:44:02.524Z,34.70
2018-03-28T05:46:30.040Z,34.22
2018-03-28T05:48:57.498Z,33.50
2018-03-28T05:51:24.990Z,34.25
2018-03-28T05:53:52.465Z,34.00
2018-03-28T05:56:19.955Z,30.02
2018-03-28T05:58:47.425Z,32.78
2018-03-28T06:01:14.918Z,31.92
2018-03-28T06:03:42.374Z,34.85
2018-03-28T06:06:09.866Z,31.33
2018-03-28T06:08:37.317Z,31.60
2018-03-28T06:11:04.895Z,27.35
2018-03-28T06:13:32.374Z,31.73
2018-03-28T06:15:59.873Z,24.12
2018-03-28T06:18:27.409Z,28.85
2018-03-28T06:20:54.885Z,33.28
2018-03-28T06:23:22.342Z,50.17
2018-03-28T06:25:49.797Z,29.70
2018-03-28T06:28:18.293Z,28.98
2018-03-28T06:30:45.745Z,26.42
2018-03-28T06:33:13.234Z,26.73
2018-03-28T06:35:40.692Z,26.55
2018-03-28T06:38:08.194Z,26.10
2018-03-28T06:40:35.641Z,24.90
2018-03-28T06:43:03.130Z,29.95
2018-03-28T06:45:30.580Z,24.20
2018-03-28T06:47:58.064Z,43.65
2018-03-28T06:50:25.513Z,31.65
2018-03-28T06:52:52.993Z,41.58
2018-03-28T06:55:21.406Z,31.45
2018-03-28T06:57:48.908Z,18.98
2018-03-28T07:00:16.445Z,26.48
2018-03-28T07:02:44.936Z,19.35
2018-03-28T07:05:12.494Z,26.40
2018-03-28T07:07:39.977Z,22.35
2018-03-28T07:10:07.433Z,24.15
2018-03-28T07:12:34.914Z,23.42
2018-03-28T07:15:02.373Z,22.10
2018-03-28T07:17:29.890Z,21.90
2018-03-28T07:19:57.344Z,18.25
2018-03-28T07:22:24.796Z,19.73
2018-03-28T07:24:52.304Z,19.05
2018-03-28T07:27:19.766Z,21.83
2018-03-28T07:29:48.291Z,17.67
2018-03-28T07:32:15.745Z,18.90
2018-03-28T07:34:43.233Z,18.50
2018-03-28T07:37:10.685Z,19.02
2018-03-28T07:39:38.179Z,18.45
2018-03-28T07:42:05.638Z,16.35
2018-03-28T07:44:33.137Z,19.30
2018-03-28T07:47:00.601Z,16.45
2018-03-28T07:49:28.089Z,16.67
2018-03-28T07:51:55.552Z,15.40
2018-03-28T07:54:23.025Z,18.83
2018-03-28T07:56:50.476Z,19.00
2018-03-28T07:59:17.969Z,14.93
2018-03-28T08:01:45.423Z,17.48
2018-03-28T08:04:12.877Z,15.15
2018-03-28T08:06:40.354Z,17.52
2018-03-28T08:09:08.002Z,18.25
2018-03-28T08:11:35.513Z,20.92
2018-03-28T08:14:02.962Z,14.68
2018-03-28T08:16:30.453Z,22.67
2018-03-28T08:18:57.908Z,22.87
2018-03-28T08:21:25.414Z,21.83
2018-03-28T08:23:52.877Z,22.52
2018-03-28T08:26:20.358Z,26.87
2018-03-28T08:28:47.826Z,18.20
2018-03-28T08:31:15.334Z,18.83
2018-03-28T08:33:42.787Z,21.45
2018-03-28T08:36:11.174Z,23.55
2018-03-28T08:38:38.630Z,21.98
2018-03-28T08:41:06.122Z,21.50
2018-03-28T08:43:35.504Z,20.05
2018-03-28T08:46:03.940Z,19.83
2018-03-28T08:48:32.398Z,25.12
2018-03-28T08:50:59.905Z,22.35
2018-03-28T08:53:28.337Z,24.27
2018-03-28T08:55:56.758Z,20.88
2018-03-28T08:58:24.210Z,20.20
2018-03-28T09:00:51.713Z,21.62
2018-03-28T09:03:20.128Z,25.80
2018-03-28T09:05:48.597Z,26.70
2018-03-28T09:08:18.034Z,29.52
2018-03-28T09:10:45.513Z,21.73
2018-03-28T09:13:13.006Z,22.10
2018-03-28T09:15:41.385Z,20.52
2018-03-28T09:18:09.806Z,23.83
2018-03-28T09:20:37.259Z,27.00
2018-03-28T09:23:04.814Z,21.12
2018-03-28T09:25:32.226Z,25.58
2018-03-28T09:27:59.717Z,21.08
2018-03-28T09:30:27.168Z,21.50
2018-03-28T09:32:54.644Z,22.50
2018-03-28T09:35:22.117Z,24.08
2018-03-28T09:37:49.644Z,19.55
2018-03-28T09:40:17.093Z,18.80
2018-03-28T09:42:44.587Z,20.95
2018-03-28T09:45:12.054Z,21.50
2018-03-28T09:47:40.494Z,24.23
2018-03-28T09:50:07.946Z,20.85
2018-03-28T09:52:35.442Z,22.65
2018-03-28T09:55:03.869Z,17.05
2018-03-28T09:57:33.317Z,20.50
2018-03-28T10:00:00.769Z,17.67
2018-03-28T10:02:31.017Z,23.87
2018-03-28T10:04:59.438Z,23.55
2018-03-28T10:07:26.885Z,19.67
2018-03-28T10:09:54.374Z,19.00
2018-03-28T10:12:21.819Z,18.85
2018-03-28T10:14:49.300Z,15.48
2018-03-28T10:17:17.800Z,18.08
2018-03-28T10:19:45.258Z,17.37
2018-03-28T10:22:12.718Z,20.85
2018-03-28T10:24:40.204Z,19.67
2018-03-28T10:27:07.681Z,18.45
2018-03-28T10:29:35.164Z,21.27
2018-03-28T10:32:02.618Z,21.87
2018-03-28T10:34:30.131Z,16.77
2018-03-28T10:36:59.528Z,19.15
2018-03-28T10:39:27.014Z,16.05
2018-03-28T10:41:56.413Z,17.30
2018-03-28T10:44:24.918Z,22.27
2018-03-28T10:46:52.377Z,15.98
2018-03-28T10:49:19.874Z,16.08
2018-03-28T10:51:47.345Z,16.80
2018-03-28T10:54:15.725Z,20.52
2018-03-28T10:56:43.204Z,14.57
2018-03-28T10:59:10.652Z,17.35
2018-03-28T11:01:38.130Z,17.48
2018-03-28T11:04:05.575Z,24.83
2018-03-28T11:06:33.052Z,18.77
2018-03-28T11:09:00.508Z,14.50
2018-03-28T11:11:28.025Z,15.60
2018-03-28T11:13:55.481Z,19.00
2018-03-28T11:16:22.981Z,19.62
2018-03-28T11:18:50.649Z,19.50
2018-03-28T11:21:18.133Z,15.63
2018-03-28T11:23:45.699Z,15.77
2018-03-28T11:26:13.188Z,20.37
2018-03-28T11:28:40.660Z,20.05
2018-03-28T11:31:08.141Z,18.25
2018-03-28T11:33:35.597Z,14.68
2018-03-28T11:36:03.080Z,20.77
2018-03-28T11:38:31.472Z,18.02
2018-03-28T11:40:58.958Z,17.83
2018-03-28T11:43:27.337Z,18.83
2018-03-28T11:45:54.793Z,20.45
2018-03-28T11:48:22.307Z,15.20
2018-03-28T11:50:50.718Z,15.98
2018-03-28T11:53:19.115Z,17.25
2018-03-28T11:55:46.569Z,18.52
2018-03-28T11:58:14.052Z,13.90
2018-03-28T12:00:41.518Z,15.40
2018-03-28T12:03:09.015Z,20.45
2018-03-28T12:05:36.490Z,17.50
2018-03-28T12:08:03.977Z,23.62
2018-03-28T12:10:32.412Z,18.25
2018-03-28T12:12:59.942Z,20.60
2018-03-28T12:15:27.401Z,20.65
2018-03-28T12:17:54.889Z,19.40
2018-03-28T12:20:22.347Z,21.62
2018-03-28T12:22:49.937Z,22.17
2018-03-28T12:25:17.531Z,18.25
2018-03-28T12:27:46.119Z,19.55
2018-03-28T12:30:13.657Z,28.23
2018-03-28T12:32:41.164Z,26.48
2018-03-28T12:35:08.649Z,28.15
2018-03-28T12:37:36.105Z,21.73
2018-03-28T12:40:04.566Z,24.58
2018-03-28T12:42:32.029Z,26.30
2018-03-28T12:44:59.541Z,25.60
2018-03-28T12:47:28.139Z,29.58
2018-03-28T12:49:55.766Z,28.17
2018-03-28T12:52:26.254Z,30.65
2018-03-28T12:54:54.737Z,29.45
2018-03-28T12:57:22.410Z,31.35
2018-03-28T12:59:49.747Z,30.42
2018-03-28T13:02:17.230Z,36.10
2018-03-28T13:04:49.095Z,31.67
2018-03-28T13:07:16.546Z,30.52
2018-03-28T13:09:44.082Z,30.15
2018-03-28T13:12:11.659Z,27.80
2018-03-28T13:14:39.327Z,29.23
2018-03-28T13:17:06.784Z,26.52
2018-03-28T13:19:34.297Z,29.92
2018-03-28T13:22:01.749Z,31.95
2018-03-28T13:24:29.261Z,31.35
2018-03-28T13:26:56.716Z,28.35
2018-03-28T13:29:24.178Z,31.05
2018-03-28T13:31:51.661Z,27.77
2018-03-28T13:34:19.173Z,27.95
2018-03-28T13:36:46.682Z,27.05
2018-03-28T13:39:15.131Z,28.48
2018-03-28T13:41:42.617Z,28.85
2018-03-28T13:44:12.044Z,30.08
2018-03-28T13:46:39.538Z,28.55
2018-03-28T13:49:07.016Z,25.05
2018-03-28T13:51:35.464Z,21.62
2018-03-28T13:54:02.921Z,24.95
2018-03-28T13:56:31.391Z,24.75
2018-03-28T13:58:58.859Z,30.67
2018-03-28T14:01:26.381Z,28.40
2018-03-28T14:03:54.753Z,32.97
2018-03-28T14:06:22.244Z,29.42
2018-03-28T14:08:49.718Z,26.73
2018-03-28T14:11:17.218Z,34.15
2018-03-28T14:13:44.670Z,30.75
2018-03-28T14:16:13.101Z,32.75
2018-03-28T14:18:40.618Z,28.35
2018-03-28T14:21:08.069Z,32.08
2018-03-28T14:23:35.526Z,38.03
2018-03-28T14:26:03.050Z,46.72
2018-03-28T14:28:30.535Z,37.78
2018-03-28T14:30:58.006Z,38.13
2018-03-28T14:33:25.489Z,39.78
2018-03-28T14:35:52.953Z,40.45
2018-03-28T14:38:21.428Z,44.30
2018-03-28T14:40:49.750Z,42.88
2018-03-28T14:43:17.229Z,46.05
2018-03-28T14:45:45.650Z,43.87
2018-03-28T14:48:14.130Z,42.30
2018-03-28T14:50:42.578Z,42.88
2018-03-28T14:53:10.094Z,44.17
2018-03-28T14:55:37.535Z,42.35
2018-03-28T14:58:05.235Z,40.10
2018-03-28T15:00:32.687Z,40.42
2018-03-28T15:03:00.190Z,47.55
2018-03-28T15:05:28.650Z,44.28
2018-03-28T15:07:57.016Z,43.80
2018-03-28T15:10:24.476Z,41.58
2018-03-28T15:12:52.896Z,44.47
2018-03-28T15:15:21.345Z,43.50
2018-03-28T15:17:48.837Z,42.17
2018-03-28T15:20:16.383Z,47.53
2018-03-28T15:22:43.837Z,45.15
2018-03-28T15:25:11.342Z,46.45
2018-03-28T15:27:38.793Z,46.37
2018-03-28T15:30:06.281Z,39.95
2018-03-28T15:32:33.742Z,45.40
2018-03-28T15:35:01.224Z,44.55
2018-03-28T15:37:29.684Z,43.50
2018-03-28T15:39:57.180Z,47.95
2018-03-28T15:42:24.646Z,52.05
2018-03-28T15:44:52.143Z,46.50
2018-03-28T15:47:19.597Z,49.38
2018-03-28T15:49:47.080Z,42.75
2018-03-28T15:52:14.537Z,49.58
2018-03-28T15:54:42.034Z,46.22
2018-03-28T15:57:09.480Z,49.58
2018-03-28T15:59:37.909Z,49.50
2018-03-28T16:02:05.357Z,43.60
2018-03-28T16:04:33.797Z,44.75
2018-03-28T16:07:02.233Z,39.80
2018-03-28T16:09:30.652Z,40.95
2018-03-28T16:11:58.117Z,42.72
2018-03-28T16:14:25.572Z,33.53
2018-03-28T16:16:53.121Z,36.28
2018-03-28T16:19:20.573Z,45.42
2018-03-28T16:21:51.352Z,37.55
2018-03-28T16:24:18.815Z,33.05
2018-03-28T16:26:46.309Z,37.30
2018-03-28T16:29:13.757Z,32.88
2018-03-28T16:31:41.298Z,31.60
2018-03-28T16:34:09.701Z,30.88
2018-03-28T16:36:37.250Z,29.60
2018-03-28T16:39:04.690Z,34.28
2018-03-28T16:41:32.165Z,28.10
2018-03-28T16:43:59.618Z,28.00
2018-03-28T16:46:27.097Z,33.35
2018-03-28T16:48:57.617Z,24.92
2018-03-28T16:51:25.107Z,28.27
2018-03-28T16:53:52.561Z,27.25
2018-03-28T16:56:20.064Z,31.48
2018-03-28T16:58:49.472Z,26.58
2018-03-28T17:01:16.970Z,27.85
2018-03-28T17:03:44.456Z,27.20
2018-03-28T17:06:11.972Z,32.20
2018-03-28T17:08:43.137Z,29.48
2018-03-28T17:11:10.587Z,30.98
2018-03-28T17:13:38.145Z,28.35
2018-03-28T17:16:05.600Z,24.05
2018-03-28T17:18:33.084Z,23.85
2018-03-28T17:21:00.618Z,29.58
2018-03-28T17:23:28.164Z,27.23
2018-03-28T17:25:56.612Z,29.87
2018-03-28T17:28:25.037Z,31.73
2018-03-28T17:30:52.589Z,34.83
2018-03-28T17:33:20.073Z,32.55
2018-03-28T17:35:47.525Z,35.42
2018-03-28T17:38:15.005Z,32.22
2018-03-28T17:40:43.426Z,30.15
2018-03-28T17:43:11.920Z,33.20
2018-03-28T17:45:40.365Z,36.45
2018-03-28T17:48:07.854Z,41.40
2018-03-28T17:50:35.321Z,39.45
2018-03-28T17:53:03.825Z,38.90
2018-03-28T17:55:31.270Z,40.88
2018-03-28T17:57:58.769Z,38.85
2018-03-28T18:03:28.552Z,44.00
2018-03-28T18:05:56.033Z,39.22
2018-03-28T18:08:23.777Z,43.80
2018-03-28T18:10:51.238Z,42.70
2018-03-28T18:13:18.729Z,44.58
2018-03-28T18:15:46.184Z,44.38
2018-03-28T18:18:13.638Z,45.85
2018-03-28T18:20:41.117Z,44.40
2018-03-28T18:23:09.490Z,44.75
2018-03-28T18:25:38.954Z,40.38
2018-03-28T18:28:06.500Z,40.10
2018-03-28T18:33:05.576Z,54.40
2018-03-28T18:35:33.066Z,55.78
2018-03-28T18:38:00.519Z,50.30
2018-03-28T18:40:28.063Z,49.60
2018-03-28T18:42:55.494Z,54.03
2018-03-28T18:45:22.977Z,60.03
2018-03-28T18:47:50.437Z,54.35
2018-03-28T18:50:17.935Z,62.53
2018-03-28T18:52:45.387Z,54.28
2018-03-28T18:55:12.873Z,54.17
2018-03-28T18:57:40.331Z,63.13
2018-03-28T19:00:07.806Z,60.65
2018-03-28T19:02:35.253Z,51.80
2018-03-28T19:05:02.741Z,51.97
2018-03-28T19:07:30.227Z,55.35
2018-03-28T19:09:57.686Z,53.10
2018-03-28T19:12:25.175Z,55.78
2018-03-28T19:14:52.757Z,51.47
2018-03-28T19:17:20.252Z,53.97
2018-03-28T19:19:47.706Z,54.38
2018-03-28T19:22:15.192Z,56.50
2018-03-28T19:24:43.551Z,52.03
2018-03-28T19:27:11.045Z,52.75
2018-03-28T19:29:38.513Z,55.55
2018-03-28T19:32:06.000Z,56.08
2018-03-28T19:34:33.452Z,52.17
2018-03-28T19:37:00.949Z,51.22
2018-03-28T19:39:29.378Z,49.70
2018-03-28T19:41:56.885Z,48.00
2018-03-28T19:44:24.356Z,52.53
2018-03-28T19:46:51.840Z,55.00
2018-03-28T19:49:19.297Z,51.53
2018-03-28T19:51:46.787Z,49.63
2018-03-28T19:54:15.184Z,49.30
2018-03-28T19:56:43.658Z,47.70
2018-03-28T19:59:11.113Z,50.47
2018-03-28T20:01:38.605Z,47.92
2018-03-28T20:04:06.061Z,54.30
2018-03-28T20:06:33.519Z,53.42
2018-03-28T20:09:01.974Z,55.55
2018-03-28T20:11:29.447Z,54.03
2018-03-28T20:13:56.933Z,50.03
2018-03-28T20:16:24.401Z,47.05
2018-03-28T20:18:51.889Z,44.53
2018-03-28T20:21:19.387Z,49.80
2018-03-28T20:23:47.832Z,45.63
2018-03-28T20:26:15.281Z,53.80
2018-03-28T20:28:42.761Z,46.30
2018-03-28T20:31:10.212Z,57.70
2018-03-28T20:33:37.753Z,59.55
2018-03-28T20:36:05.309Z,57.45
2018-03-28T20:38:32.785Z,49.75
2018-03-28T20:41:00.241Z,56.40
2018-03-28T20:43:27.728Z,52.75
2018-03-28T20:45:55.179Z,55.90
2018-03-28T20:48:22.877Z,50.30
2018-03-28T20:50:50.373Z,53.53
2018-03-28T20:53:17.848Z,58.53
2018-03-28T20:55:45.322Z,58.58
2018-03-28T20:58:12.809Z,55.03
2018-03-28T21:00:40.283Z,63.00
2018-03-28T21:03:07.854Z,52.45
2018-03-28T21:05:35.316Z,57.05
2018-03-28T21:08:02.820Z,58.70
2018-03-28T21:10:31.214Z,54.42
2018-03-28T21:12:58.681Z,59.75
2018-03-28T21:15:26.181Z,59.80
2018-03-28T21:17:53.644Z,59.55
2018-03-28T21:20:22.110Z,60.22
2018-03-28T21:22:49.579Z,62.50
2018-03-28T21:25:17.070Z,63.10
2018-03-28T21:27:44.539Z,69.10
2018-03-28T21:30:12.116Z,78.00
2018-03-28T21:32:39.586Z,91.70
2018-03-28T21:35:07.194Z,87.85
2018-03-28T21:37:34.646Z,85.85
2018-03-28T21:40:02.149Z,91.05
2018-03-28T21:42:29.605Z,93.50
2018-03-28T21:44:57.137Z,86.40
2018-03-28T21:47:24.589Z,95.30
2018-03-28T21:49:52.081Z,92.62
2018-03-28T21:52:19.539Z,94.82
2018-03-28T21:54:47.039Z,95.22
2018-03-28T21:57:14.502Z,82.62
2018-03-28T21:59:42.026Z,91.87
2018-03-28T22:02:09.525Z,82.45
2018-03-28T22:04:37.034Z,101.47
2018-03-28T22:07:04.531Z,104.60
2018-03-28T22:09:31.996Z,89.78
2018-03-28T22:11:59.510Z,90.80
2018-03-28T22:14:27.008Z,81.18
2018-03-28T22:16:54.502Z,95.85
2018-03-28T22:19:21.959Z,85.72
2018-03-28T22:21:49.509Z,81.60
2018-03-28T22:24:16.987Z,89.60
2018-03-28T22:26:44.477Z,99.10
2018-03-28T22:29:11.927Z,93.20
2018-03-28T22:31:39.402Z,88.00
2018-03-28T22:34:06.849Z,79.28
2018-03-28T22:36:34.321Z,92.53
2018-03-28T22:39:01.776Z,85.32
2018-03-28T22:41:29.331Z,85.00
2018-03-28T22:43:56.742Z,95.25
2018-03-28T22:46:25.321Z,101.07
2018-03-28T22:48:52.835Z,97.45
2018-03-28T22:51:20.332Z,106.75
2018-03-28T22:53:47.775Z,87.82
2018-03-28T22:56:15.249Z,93.78
2018-03-28T22:58:42.692Z,102.05
2018-03-28T23:01:10.236Z,94.97
2018-03-28T23:03:37.789Z,90.62
2018-03-28T23:06:05.253Z,94.50
2018-03-28T23:08:32.731Z,94.80
2018-03-28T23:11:00.233Z,97.53
2018-03-28T23:13:27.720Z,96.20
2018-03-28T23:15:55.156Z,75.93
2018-03-28T23:18:22.630Z,77.85
2018-03-28T23:20:50.096Z,79.18
2018-03-28T23:23:17.610Z,79.55
2018-03-28T23:25:45.062Z,72.15
2018-03-28T23:28:12.549Z,75.87
2018-03-28T23:30:40.009Z,71.10
2018-03-28T23:33:07.489Z,76.65
2018-03-28T23:35:34.934Z,79.50
2018-03-28T23:38:04.390Z,78.10
2018-03-28T23:40:31.893Z,69.90
2018-03-28T23:42:59.390Z,79.80
2018-03-28T23:45:26.862Z,74.37
2018-03-28T23:47:54.389Z,72.07
2018-03-28T23:50:21.837Z,74.53
2018-03-28T23:52:49.291Z,69.32
2018-03-28T23:55:16.829Z,70.03
2018-03-28T23:57:44.269Z,70.53
